createdAt,value
2017-11-14T00:01:32.620Z,0.40
2017-11-14T00:04:00.217Z,0.30
2017-11-14T00:06:27.785Z,0.30
2017-11-14T00:08:55.385Z,0.30
2017-11-14T00:11:22.959Z,0.20
2017-11-14T00:13:50.582Z,0.20
2017-11-14T00:16:18.925Z,0.20
2017-11-14T00:18:46.513Z,0.20
2017-11-14T00:21:14.100Z,0.20
2017-11-14T00:23:41.665Z,0.20
2017-11-14T00:26:09.261Z,0.20
2017-11-14T00:28:36.829Z,0.20
2017-11-14T00:31:04.917Z,0.20
2017-11-14T00:33:33.993Z,0.30
2017-11-14T00:36:01.564Z,0.30
2017-11-14T00:38:29.980Z,0.20
2017-11-14T00:40:58.313Z,0.20
2017-11-14T00:43:25.882Z,0.20
2017-11-14T00:45:53.474Z,0.20
2017-11-14T00:48:21.804Z,0.30
2017-11-14T00:50:49.393Z,0.20
2017-11-14T00:53:17.244Z,0.20
2017-11-14T00:55:44.836Z,0.10
2017-11-14T00:58:13.209Z,0.10
2017-11-14T01:00:40.801Z,0.00
2017-11-14T01:03:08.366Z,0.10
2017-11-14T01:05:35.974Z,0.10
2017-11-14T01:08:03.545Z,0.10
2017-11-14T01:10:32.533Z,0.20
2017-11-14T01:13:00.098Z,0.20
2017-11-14T01:15:27.864Z,0.20
2017-11-14T01:17:55.434Z,0.20
2017-11-14T01:20:22.997Z,0.10
2017-11-14T01:22:51.353Z,0.10
2017-11-14T01:25:18.915Z,0.10
2017-11-14T01:27:46.510Z,0.10
2017-11-14T01:30:14.840Z,0.30
2017-11-14T01:32:42.430Z,0.20
2017-11-14T01:35:10.769Z,0.40
2017-11-14T01:37:39.062Z,0.40
2017-11-14T01:40:06.630Z,0.40
2017-11-14T01:42:34.195Z,0.50
2017-11-14T01:45:03.293Z,0.40
2017-11-14T01:47:32.481Z,0.50
2017-11-14T01:50:00.072Z,0.40
2017-11-14T01:52:29.331Z,0.30
2017-11-14T01:54:56.924Z,0.30
2017-11-14T01:57:24.498Z,0.30
2017-11-14T01:59:52.866Z,0.30
2017-11-14T02:02:20.631Z,0.20
2017-11-14T02:04:49.027Z,0.30
2017-11-14T02:07:17.367Z,0.30
2017-11-14T02:09:45.281Z,0.30
2017-11-14T02:12:13.092Z,0.30
2017-11-14T02:14:40.845Z,0.40
2017-11-14T02:17:08.713Z,0.40
2017-11-14T02:19:36.316Z,0.50
2017-11-14T02:22:03.904Z,0.50
2017-11-14T02:24:31.846Z,0.50
2017-11-14T02:27:01.110Z,0.50
2017-11-14T02:29:30.847Z,0.50
2017-11-14T02:31:58.581Z,0.50
2017-11-14T02:34:26.265Z,0.50
2017-11-14T02:36:53.849Z,0.40
2017-11-14T02:39:21.444Z,0.40
2017-11-14T02:41:49.016Z,0.50
2017-11-14T02:44:16.609Z,0.50
2017-11-14T02:46:44.185Z,0.50
2017-11-14T02:49:13.289Z,0.50
2017-11-14T02:51:41.626Z,0.60
2017-11-14T02:54:09.217Z,0.50
2017-11-14T02:56:36.788Z,0.60
2017-11-14T02:59:04.377Z,0.60
2017-11-14T03:01:31.940Z,0.70
2017-11-14T03:03:59.537Z,0.70
2017-11-14T03:06:27.190Z,0.80
2017-11-14T03:08:54.811Z,0.80
2017-11-14T03:11:23.141Z,0.90
2017-11-14T03:13:50.737Z,0.90
2017-11-14T03:16:19.814Z,1.00
2017-11-14T03:18:47.409Z,1.00
2017-11-14T03:21:15.742Z,1.10
2017-11-14T03:23:43.334Z,1.10
2017-11-14T03:26:10.905Z,1.20
2017-11-14T03:28:39.480Z,1.30
2017-11-14T03:31:07.822Z,1.20
2017-11-14T03:33:35.396Z,1.20
2017-11-14T03:36:02.997Z,1.10
2017-11-14T03:38:32.461Z,0.80
2017-11-14T03:41:00.053Z,0.80
2017-11-14T03:43:29.314Z,0.80
2017-11-14T03:45:56.912Z,0.80
2017-11-14T03:48:25.261Z,0.80
2017-11-14T03:50:52.854Z,0.80
2017-11-14T03:53:21.193Z,0.80
2017-11-14T03:55:49.298Z,0.80
2017-11-14T03:58:16.865Z,0.80
2017-11-14T04:03:44.437Z,0.70
2017-11-14T04:06:12.916Z,0.60
2017-11-14T04:08:41.996Z,0.70
2017-11-14T04:11:09.565Z,0.70
2017-11-14T04:13:37.930Z,0.90
2017-11-14T04:16:05.506Z,0.90
2017-11-14T04:18:33.156Z,1.00
2017-11-14T04:21:00.729Z,1.00
2017-11-14T04:23:30.977Z,1.10
2017-11-14T04:25:59.313Z,1.20
2017-11-14T04:28:26.910Z,1.20
2017-11-14T04:30:55.260Z,1.30
2017-11-14T04:33:22.848Z,1.30
2017-11-14T04:35:51.189Z,1.40
2017-11-14T04:38:18.784Z,1.30
2017-11-14T04:40:47.156Z,1.40
2017-11-14T04:43:14.753Z,1.40
2017-11-14T04:45:42.325Z,1.40
2017-11-14T04:48:09.941Z,1.40
2017-11-14T04:50:37.504Z,1.40
2017-11-14T04:53:05.065Z,1.40
2017-11-14T04:55:32.661Z,1.50
2017-11-14T04:58:00.234Z,1.50
2017-11-14T05:00:27.839Z,1.60
2017-11-14T05:02:55.418Z,1.60
2017-11-14T05:05:23.776Z,1.60
2017-11-14T05:07:51.348Z,1.50
2017-11-14T05:10:18.941Z,1.50
2017-11-14T05:12:46.508Z,1.50
2017-11-14T05:15:14.105Z,1.50
2017-11-14T05:17:41.674Z,1.50
2017-11-14T05:20:09.265Z,1.40
2017-11-14T05:22:37.801Z,1.30
2017-11-14T05:25:05.423Z,1.30
2017-11-14T05:27:33.002Z,1.20
2017-11-14T05:30:00.590Z,1.20
2017-11-14T05:32:29.892Z,1.10
2017-11-14T05:34:57.462Z,1.10
2017-11-14T05:37:25.030Z,1.10
2017-11-14T05:39:52.629Z,1.00
2017-11-14T05:42:20.977Z,1.10
2017-11-14T05:44:48.577Z,1.10
2017-11-14T05:47:16.145Z,1.10
2017-11-14T05:49:43.742Z,1.20
2017-11-14T05:52:11.317Z,1.30
2017-11-14T05:54:39.688Z,1.40
2017-11-14T05:57:07.261Z,1.40
2017-11-14T05:59:34.852Z,1.30
2017-11-14T06:02:02.425Z,1.40
2017-11-14T06:04:33.820Z,1.40
2017-11-14T06:07:01.398Z,1.40
2017-11-14T06:09:30.697Z,1.40
2017-11-14T06:11:58.264Z,1.40
2017-11-14T06:14:26.105Z,1.40
2017-11-14T06:16:53.708Z,1.50
2017-11-14T06:19:22.045Z,1.50
2017-11-14T06:21:49.651Z,1.50
2017-11-14T06:24:17.992Z,1.50
2017-11-14T06:26:45.674Z,1.50
2017-11-14T06:29:13.246Z,1.60
2017-11-14T06:31:41.629Z,1.50
2017-11-14T06:34:09.966Z,1.50
2017-11-14T06:36:37.541Z,1.50
2017-11-14T06:39:05.134Z,1.50
2017-11-14T06:41:33.478Z,1.50
2017-11-14T06:44:02.580Z,1.40
2017-11-14T06:46:32.685Z,1.40
2017-11-14T06:49:00.277Z,1.40
2017-11-14T06:51:29.545Z,1.30
2017-11-14T06:53:57.132Z,1.30
2017-11-14T06:56:24.704Z,1.20
2017-11-14T06:58:53.065Z,1.10
2017-11-14T07:01:20.636Z,1.10
2017-11-14T07:03:48.998Z,1.00
2017-11-14T07:06:16.574Z,1.00
2017-11-14T07:08:44.934Z,0.90
2017-11-14T07:11:12.497Z,0.90
2017-11-14T07:13:40.094Z,0.90
2017-11-14T07:16:08.448Z,1.00
2017-11-14T07:18:36.801Z,1.10
2017-11-14T07:21:04.370Z,1.10
2017-11-14T07:23:31.961Z,1.10
2017-11-14T07:26:00.289Z,1.90
2017-11-14T07:28:27.905Z,1.90
2017-11-14T07:30:56.241Z,1.80
2017-11-14T07:33:23.809Z,1.80
2017-11-14T07:35:51.405Z,1.90
2017-11-14T07:38:19.745Z,2.80
2017-11-14T07:40:48.118Z,3.50
2017-11-14T07:43:15.693Z,3.50
2017-11-14T07:45:43.299Z,3.70
2017-11-14T07:48:10.868Z,4.00
2017-11-14T07:50:38.452Z,4.50
2017-11-14T07:53:06.017Z,5.00
2017-11-14T07:55:33.604Z,5.50
2017-11-14T07:58:01.941Z,6.30
2017-11-14T08:00:31.688Z,6.50
2017-11-14T08:02:59.258Z,6.50
2017-11-14T08:05:26.844Z,6.20
2017-11-14T08:07:55.173Z,5.70
2017-11-14T08:10:22.765Z,5.70
2017-11-14T08:12:50.337Z,5.50
2017-11-14T08:15:18.813Z,5.40
2017-11-14T08:17:47.149Z,5.10
2017-11-14T08:20:14.724Z,5.00
2017-11-14T08:22:42.334Z,4.60
2017-11-14T08:25:10.069Z,4.30
2017-11-14T08:27:37.638Z,4.00
2017-11-14T08:30:05.969Z,3.90
2017-11-14T08:32:33.567Z,3.90
2017-11-14T08:35:01.140Z,4.00
2017-11-14T08:37:28.933Z,4.20
2017-11-14T08:39:56.493Z,4.40
2017-11-14T08:42:24.241Z,4.60
2017-11-14T08:44:52.577Z,4.30
2017-11-14T08:47:20.150Z,4.30
2017-11-14T08:49:47.745Z,4.50
2017-11-14T08:52:16.078Z,5.50
2017-11-14T08:54:43.669Z,5.50
2017-11-14T08:57:12.005Z,6.10
2017-11-14T08:59:39.597Z,6.10
2017-11-14T09:02:07.165Z,6.20
2017-11-14T09:04:34.757Z,6.40
2017-11-14T09:07:02.336Z,7.10
2017-11-14T09:09:31.796Z,9.30
2017-11-14T09:12:00.165Z,10.00
2017-11-14T09:14:27.745Z,10.00
2017-11-14T09:16:56.112Z,10.20
2017-11-14T09:19:23.677Z,10.20
2017-11-14T09:21:52.038Z,9.20
2017-11-14T09:24:19.610Z,9.10
2017-11-14T09:26:47.197Z,8.10
2017-11-14T09:29:14.761Z,8.30
2017-11-14T09:31:42.349Z,9.50
2017-11-14T09:34:09.914Z,10.10
2017-11-14T09:36:37.513Z,10.70
2017-11-14T09:39:05.090Z,10.40
2017-11-14T09:41:33.753Z,9.80
2017-11-14T09:44:02.106Z,8.50
2017-11-14T09:46:31.138Z,8.50
2017-11-14T09:48:59.501Z,7.20
2017-11-14T09:51:27.069Z,7.20
2017-11-14T09:53:54.670Z,7.40
2017-11-14T09:56:22.242Z,8.10
2017-11-14T09:58:49.997Z,8.70
2017-11-14T10:01:17.557Z,9.60
2017-11-14T10:03:45.135Z,10.40
2017-11-14T10:06:12.736Z,9.80
2017-11-14T10:08:41.818Z,8.00
2017-11-14T10:11:09.405Z,8.00
2017-11-14T10:13:37.753Z,7.80
2017-11-14T10:16:05.340Z,7.80
2017-11-14T10:18:32.913Z,7.40
2017-11-14T10:21:01.265Z,7.10
2017-11-14T10:23:30.180Z,7.10
2017-11-14T10:25:58.536Z,6.70
2017-11-14T10:28:26.106Z,6.70
2017-11-14T10:30:53.693Z,6.40
2017-11-14T10:33:22.022Z,6.40
2017-11-14T10:35:49.626Z,6.40
2017-11-14T10:38:17.954Z,6.80
2017-11-14T10:40:45.558Z,6.80
2017-11-14T10:43:13.889Z,7.40
2017-11-14T10:45:41.584Z,7.30
2017-11-14T10:48:09.161Z,7.10
2017-11-14T10:50:37.729Z,6.70
2017-11-14T10:53:05.469Z,6.70
2017-11-14T10:55:33.077Z,6.70
2017-11-14T10:58:01.416Z,6.90
2017-11-14T11:00:35.673Z,6.90
2017-11-14T11:03:03.998Z,7.00
2017-11-14T11:05:32.112Z,6.90
2017-11-14T11:07:59.702Z,6.90
2017-11-14T11:10:27.581Z,7.00
2017-11-14T11:12:55.198Z,7.10
2017-11-14T11:15:22.862Z,7.20
2017-11-14T11:17:50.473Z,7.50
2017-11-14T11:20:18.082Z,8.40
2017-11-14T11:22:45.681Z,9.10
2017-11-14T11:25:13.244Z,9.60
2017-11-14T11:27:40.856Z,9.20
2017-11-14T11:30:08.466Z,8.70
2017-11-14T11:32:36.153Z,8.60
2017-11-14T11:35:03.745Z,8.10
2017-11-14T11:37:31.892Z,7.70
2017-11-14T11:39:59.540Z,7.40
2017-11-14T11:42:27.138Z,7.20
2017-11-14T11:44:55.533Z,7.00
2017-11-14T11:47:24.644Z,7.10
2017-11-14T11:49:52.973Z,7.30
2017-11-14T11:52:20.670Z,7.30
2017-11-14T11:54:48.233Z,7.30
2017-11-14T11:57:17.425Z,7.00
2017-11-14T11:59:44.985Z,7.00
2017-11-14T12:02:12.550Z,6.90
2017-11-14T12:04:40.134Z,6.80
2017-11-14T12:07:08.497Z,6.90
2017-11-14T12:09:36.829Z,6.90
2017-11-14T12:12:04.458Z,6.90
2017-11-14T12:14:32.017Z,6.80
2017-11-14T12:17:00.659Z,6.90
2017-11-14T12:19:29.877Z,6.80
2017-11-14T12:21:58.217Z,7.70
2017-11-14T12:24:25.813Z,7.60
2017-11-14T12:26:53.382Z,8.00
2017-11-14T12:29:21.737Z,8.00
2017-11-14T12:31:49.296Z,8.00
2017-11-14T12:34:16.882Z,9.10
2017-11-14T12:36:45.214Z,9.50
2017-11-14T12:39:12.805Z,9.50
2017-11-14T12:41:40.369Z,9.00
2017-11-14T12:44:07.957Z,8.80
2017-11-14T12:46:36.281Z,9.10
2017-11-14T12:49:03.873Z,9.00
2017-11-14T12:51:31.809Z,8.70
2017-11-14T12:53:59.612Z,8.10
2017-11-14T12:56:27.269Z,7.80
2017-11-14T12:58:55.117Z,7.50
2017-11-14T13:01:22.797Z,7.30
2017-11-14T13:03:50.365Z,7.10
2017-11-14T13:06:17.962Z,7.00
2017-11-14T13:08:45.542Z,6.90
2017-11-14T13:11:13.132Z,6.90
2017-11-14T13:13:40.693Z,7.00
2017-11-14T13:16:08.281Z,7.00
2017-11-14T13:18:36.615Z,7.00
2017-11-14T13:21:04.234Z,7.00
2017-11-14T13:23:31.875Z,6.90
2017-11-14T13:25:59.733Z,6.90
2017-11-14T13:28:27.581Z,6.80
2017-11-14T13:30:55.146Z,6.70
2017-11-14T13:33:22.746Z,6.70
2017-11-14T13:35:51.073Z,6.70
2017-11-14T13:38:18.689Z,6.70
2017-11-14T13:40:46.324Z,6.60
2017-11-14T13:43:13.909Z,6.60
2017-11-14T13:45:42.233Z,6.60
2017-11-14T13:48:09.817Z,6.50
2017-11-14T13:50:37.376Z,6.50
2017-11-14T13:53:04.969Z,6.60
2017-11-14T13:55:33.298Z,6.50
2017-11-14T13:58:00.880Z,6.50
2017-11-14T14:00:29.894Z,6.50
2017-11-14T14:02:58.265Z,6.50
2017-11-14T14:05:26.595Z,6.40
2017-11-14T14:07:54.189Z,6.40
2017-11-14T14:10:21.753Z,6.40
2017-11-14T14:12:49.351Z,6.30
2017-11-14T14:15:16.934Z,6.30
2017-11-14T14:17:44.953Z,6.30
2017-11-14T14:20:12.521Z,6.30
2017-11-14T14:22:40.085Z,6.20
2017-11-14T14:25:08.441Z,6.10
2017-11-14T14:27:36.006Z,6.10
2017-11-14T14:30:03.598Z,6.10
2017-11-14T14:32:31.744Z,6.10
2017-11-14T14:34:59.329Z,6.10
2017-11-14T14:37:27.657Z,6.10
2017-11-14T14:39:55.250Z,6.00
2017-11-14T14:42:22.817Z,6.00
2017-11-14T14:44:50.472Z,6.00
2017-11-14T14:47:18.033Z,6.00
2017-11-14T14:49:46.386Z,5.90
2017-11-14T14:52:13.961Z,5.90
2017-11-14T14:54:41.550Z,5.80
2017-11-14T14:57:09.896Z,5.70
2017-11-14T14:59:38.403Z,5.70
2017-11-14T15:02:06.749Z,5.60
2017-11-14T15:04:34.317Z,5.60
2017-11-14T15:07:01.918Z,5.60
2017-11-14T15:09:30.898Z,5.50
2017-11-14T15:11:59.249Z,5.50
2017-11-14T15:14:26.818Z,5.50
2017-11-14T15:16:54.401Z,5.40
2017-11-14T15:19:22.753Z,5.30
2017-11-14T15:21:50.313Z,5.30
2017-11-14T15:24:17.910Z,5.30
2017-11-14T15:26:46.236Z,5.20
2017-11-14T15:29:13.825Z,5.20
2017-11-14T15:31:41.398Z,5.20
2017-11-14T15:34:09.389Z,5.20
2017-11-14T15:36:37.717Z,5.20
2017-11-14T15:39:05.316Z,5.20
2017-11-14T15:41:33.663Z,5.20
2017-11-14T15:44:01.223Z,5.20
2017-11-14T15:46:29.956Z,5.10
2017-11-14T15:48:58.280Z,5.10
2017-11-14T15:51:25.870Z,5.10
2017-11-14T15:53:53.433Z,5.10
2017-11-14T15:56:21.031Z,5.00
2017-11-14T15:58:48.600Z,5.00
2017-11-14T16:01:16.184Z,5.00
2017-11-14T16:03:43.746Z,5.00
2017-11-14T16:06:11.539Z,5.00
2017-11-14T16:08:39.110Z,5.00
2017-11-14T16:11:07.444Z,5.00
2017-11-14T16:13:35.040Z,5.00
2017-11-14T16:16:03.381Z,5.00
2017-11-14T16:18:31.834Z,5.00
2017-11-14T16:20:59.397Z,5.00
2017-11-14T16:23:26.988Z,4.90
2017-11-14T16:25:54.559Z,4.90
2017-11-14T16:28:22.142Z,4.90
2017-11-14T16:30:50.483Z,4.90
2017-11-14T16:33:18.113Z,4.90
2017-11-14T16:35:45.685Z,4.90
2017-11-14T16:38:13.249Z,4.90
2017-11-14T16:40:40.860Z,4.90
2017-11-14T16:43:08.420Z,4.90
2017-11-14T16:45:36.089Z,4.90
2017-11-14T16:48:03.652Z,4.90
2017-11-14T16:50:31.248Z,4.90
2017-11-14T16:52:58.809Z,4.90
2017-11-14T16:55:26.431Z,4.80
2017-11-14T16:57:53.997Z,4.80
2017-11-14T17:00:22.375Z,4.80
2017-11-14T17:02:49.941Z,4.70
2017-11-14T17:05:18.269Z,4.70
2017-11-14T17:07:45.857Z,4.70
2017-11-14T17:10:13.417Z,4.70
2017-11-14T17:12:41.004Z,4.70
2017-11-14T17:15:09.334Z,4.60
2017-11-14T17:17:37.133Z,4.70
2017-11-14T17:20:04.697Z,4.60
2017-11-14T17:22:32.261Z,4.70
2017-11-14T17:24:59.848Z,4.60
2017-11-14T17:27:27.413Z,4.70
2017-11-14T17:29:55.010Z,4.60
2017-11-14T17:32:22.572Z,4.60
2017-11-14T17:34:50.164Z,4.60
2017-11-14T17:37:17.725Z,4.60
2017-11-14T17:39:45.309Z,4.60
2017-11-14T17:42:13.636Z,4.60
2017-11-14T17:44:41.226Z,4.60
2017-11-14T17:47:09.561Z,4.60
2017-11-14T17:49:37.150Z,4.60
2017-11-14T17:52:04.710Z,4.60
2017-11-14T17:54:32.300Z,4.60
2017-11-14T17:57:00.637Z,4.60
2017-11-14T17:59:30.664Z,4.60
2017-11-14T18:01:58.229Z,4.60
2017-11-14T18:04:25.805Z,4.60
2017-11-14T18:06:54.157Z,4.60
2017-11-14T18:09:21.722Z,4.60
2017-11-14T18:11:49.318Z,4.60
2017-11-14T18:14:17.649Z,4.60
2017-11-14T18:16:45.249Z,4.60
2017-11-14T18:19:13.576Z,4.50
2017-11-14T18:21:41.217Z,4.50
2017-11-14T18:24:09.229Z,4.50
2017-11-14T18:26:36.830Z,4.50
2017-11-14T18:29:05.190Z,4.50
2017-11-14T18:31:32.853Z,4.50
2017-11-14T18:34:01.946Z,4.50
2017-11-14T18:36:30.741Z,4.50
2017-11-14T18:38:58.344Z,4.60
2017-11-14T18:41:25.926Z,4.60
2017-11-14T18:43:53.629Z,4.50
2017-11-14T18:46:21.201Z,4.50
2017-11-14T18:48:49.564Z,4.50
2017-11-14T18:51:17.963Z,4.40
2017-11-14T18:53:46.665Z,4.40
2017-11-14T18:56:14.228Z,4.40
2017-11-14T18:58:41.793Z,4.40
2017-11-14T19:01:09.412Z,4.40
2017-11-14T19:03:36.981Z,4.40
2017-11-14T19:06:04.566Z,4.40
2017-11-14T19:08:32.133Z,4.40
2017-11-14T19:10:59.739Z,4.40
2017-11-14T19:13:27.367Z,4.40
2017-11-14T19:15:54.933Z,4.40
2017-11-14T19:18:22.516Z,4.50
2017-11-14T19:20:50.077Z,4.50
2017-11-14T19:23:17.668Z,4.50
2017-11-14T19:25:45.240Z,4.50
2017-11-14T19:28:13.564Z,4.50
2017-11-14T19:30:41.154Z,4.50
2017-11-14T19:33:08.720Z,4.60
2017-11-14T19:35:36.313Z,4.60
2017-11-14T19:38:04.646Z,4.60
2017-11-14T19:40:32.238Z,4.60
2017-11-14T19:43:00.570Z,4.60
2017-11-14T19:45:29.072Z,4.60
2017-11-14T19:47:56.637Z,4.60
2017-11-14T19:50:24.225Z,4.60
2017-11-14T19:52:52.560Z,4.60
2017-11-14T19:55:20.175Z,4.60
2017-11-14T19:57:47.745Z,4.60
2017-11-14T20:00:15.310Z,4.70
2017-11-14T20:02:42.897Z,4.60
2017-11-14T20:05:10.452Z,4.60
2017-11-14T20:07:38.120Z,4.60
2017-11-14T20:10:05.789Z,4.60
2017-11-14T20:12:33.353Z,4.50
2017-11-14T20:15:00.938Z,4.50
2017-11-14T20:17:29.122Z,4.50
2017-11-14T20:19:57.485Z,4.50
2017-11-14T20:22:25.192Z,4.40
2017-11-14T20:24:52.751Z,4.50
2017-11-14T20:27:20.313Z,4.50
2017-11-14T20:29:47.990Z,4.40
2017-11-14T20:32:15.562Z,4.50
2017-11-14T20:34:43.149Z,4.40
2017-11-14T20:37:10.712Z,4.40
2017-11-14T20:39:38.304Z,4.50
2017-11-14T20:42:06.633Z,4.50
2017-11-14T20:44:34.469Z,4.40
2017-11-14T20:47:02.033Z,4.40
2017-11-14T20:49:29.857Z,4.40
2017-11-14T20:51:58.262Z,4.40
2017-11-14T20:54:25.847Z,4.40
2017-11-14T20:56:53.449Z,4.40
2017-11-14T20:59:21.780Z,4.40
2017-11-14T21:01:49.369Z,4.40
2017-11-14T21:04:16.937Z,4.40
2017-11-14T21:06:44.524Z,4.40
2017-11-14T21:09:12.857Z,4.40
2017-11-14T21:11:40.453Z,4.40
2017-11-14T21:14:08.017Z,4.40
2017-11-14T21:16:35.616Z,4.40
2017-11-14T21:19:03.176Z,4.50
2017-11-14T21:21:31.850Z,4.50
2017-11-14T21:24:00.183Z,4.50
2017-11-14T21:26:27.773Z,4.40
2017-11-14T21:28:56.102Z,4.50
2017-11-14T21:31:23.690Z,4.50
2017-11-14T21:33:52.029Z,4.50
2017-11-14T21:36:19.625Z,4.50
2017-11-14T21:38:47.189Z,4.40
2017-11-14T21:41:14.780Z,4.40
2017-11-14T21:43:43.108Z,4.40
2017-11-14T21:46:10.713Z,4.40
2017-11-14T21:48:39.048Z,4.40
2017-11-14T21:51:06.610Z,4.40
2017-11-14T21:53:34.204Z,4.40
2017-11-14T21:56:01.773Z,4.30
2017-11-14T21:58:30.992Z,4.30
2017-11-14T22:00:58.557Z,4.30
2017-11-14T22:03:26.150Z,4.40
2017-11-14T22:05:53.744Z,4.40
2017-11-14T22:08:22.850Z,4.40
2017-11-14T22:10:51.193Z,4.40
2017-11-14T22:13:18.785Z,4.40
2017-11-14T22:15:46.344Z,4.40
2017-11-14T22:18:13.953Z,4.40
2017-11-14T22:20:41.526Z,4.40
2017-11-14T22:23:09.099Z,4.40
2017-11-14T22:25:36.689Z,4.40
2017-11-14T22:30:38.486Z,4.40
2017-11-14T22:33:06.815Z,4.50
2017-11-14T22:35:35.177Z,4.50
2017-11-14T22:38:02.765Z,4.50
2017-11-14T22:40:32.565Z,4.60
2017-11-14T22:43:00.178Z,4.50
2017-11-14T22:45:29.425Z,4.60
2017-11-14T22:47:57.015Z,4.60
2017-11-14T22:50:24.610Z,4.60
2017-11-14T22:52:52.173Z,4.60
2017-11-14T22:55:19.897Z,4.70
2017-11-14T22:57:48.965Z,4.60
2017-11-14T23:00:26.392Z,4.70
2017-11-14T23:02:53.952Z,4.70
2017-11-14T23:05:21.517Z,4.70
2017-11-14T23:07:49.180Z,4.70
2017-11-14T23:10:16.743Z,4.70
2017-11-14T23:12:45.101Z,4.70
2017-11-14T23:15:12.661Z,4.70
2017-11-14T23:17:40.261Z,4.70
2017-11-14T23:20:08.897Z,4.70
2017-11-14T23:22:36.499Z,4.70
2017-11-14T23:25:04.833Z,4.60
2017-11-14T23:27:32.433Z,4.60
2017-11-14T23:30:00.766Z,4.60
2017-11-14T23:32:29.934Z,4.60
2017-11-14T23:34:57.534Z,4.60
2017-11-14T23:37:25.122Z,4.60
2017-11-14T23:39:52.692Z,4.70
2017-11-14T23:42:21.496Z,4.70
2017-11-14T23:44:49.820Z,4.60
2017-11-14T23:47:17.426Z,4.70
2017-11-14T23:49:45.761Z,4.60
2017-11-14T23:52:13.325Z,4.60
2017-11-14T23:54:40.909Z,4.60
2017-11-14T23:57:08.471Z,4.60
2017-11-14T23:59:36.070Z,4.60
